sensor_id;sensor_type;location;lat;lon;timestamp;temperature;humidity
13482;DHT22;6813;60.352;15.746;2023-03-31T00:00:36;-2.40;91.70
13482;DHT22;6813;60.352;15.746;2023-03-31T00:03:01;-2.40;91.80
13482;DHT22;6813;60.352;15.746;2023-03-31T00:05:27;-2.50;92.00
13482;DHT22;6813;60.352;15.746;2023-03-31T00:07:57;-2.60;92.20
13482;DHT22;6813;60.352;15.746;2023-03-31T00:10:30;-2.70;92.40
13482;DHT22;6813;60.352;15.746;2023-03-31T00:12:59;-2.70;92.60
13482;DHT22;6813;60.352;15.746;2023-03-31T00:15:26;-2.80;92.50
13482;DHT22;6813;60.352;15.746;2023-03-31T00:17:52;-2.90;92.50
13482;DHT22;6813;60.352;15.746;2023-03-31T00:20:18;-2.80;92.80
13482;DHT22;6813;60.352;15.746;2023-03-31T00:22:44;-2.80;92.90
13482;DHT22;6813;60.352;15.746;2023-03-31T00:25:13;-2.80;92.90
13482;DHT22;6813;60.352;15.746;2023-03-31T00:27:43;-2.70;92.60
13482;DHT22;6813;60.352;15.746;2023-03-31T00:30:10;-2.70;92.70
13482;DHT22;6813;60.352;15.746;2023-03-31T00:32:37;-2.70;92.60
13482;DHT22;6813;60.352;15.746;2023-03-31T00:35:02;-2.70;92.60
13482;DHT22;6813;60.352;15.746;2023-03-31T00:37:29;-2.80;92.50
13482;DHT22;6813;60.352;15.746;2023-03-31T00:39:55;-3.00;92.50
13482;DHT22;6813;60.352;15.746;2023-03-31T00:42:21;-3.30;92.90
13482;DHT22;6813;60.352;15.746;2023-03-31T00:47:51;-3.40;93.80
13482;DHT22;6813;60.352;15.746;2023-03-31T00:50:25;-3.30;94.10
13482;DHT22;6813;60.352;15.746;2023-03-31T00:53:13;-3.20;94.20
13482;DHT22;6813;60.352;15.746;2023-03-31T00:55:52;-3.20;93.80
13482;DHT22;6813;60.352;15.746;2023-03-31T00:58:20;-3.10;93.70
13482;DHT22;6813;60.352;15.746;2023-03-31T01:00:46;-3.20;93.20
13482;DHT22;6813;60.352;15.746;2023-03-31T01:03:13;-3.30;93.10
13482;DHT22;6813;60.352;15.746;2023-03-31T01:08:09;-3.40;93.10
13482;DHT22;6813;60.352;15.746;2023-03-31T01:10:39;-3.70;93.30
13482;DHT22;6813;60.352;15.746;2023-03-31T01:13:08;-3.80;93.40
13482;DHT22;6813;60.352;15.746;2023-03-31T01:15:36;-3.70;93.70
13482;DHT22;6813;60.352;15.746;2023-03-31T01:18:02;-3.70;93.80
13482;DHT22;6813;60.352;15.746;2023-03-31T01:23:31;-3.70;93.90
13482;DHT22;6813;60.352;15.746;2023-03-31T01:42:47;-4.10;94.50
13482;DHT22;6813;60.352;15.746;2023-03-31T01:45:36;-4.10;94.60
13482;DHT22;6813;60.352;15.746;2023-03-31T01:48:16;-4.00;94.80
13482;DHT22;6813;60.352;15.746;2023-03-31T01:50:49;-3.90;94.90
13482;DHT22;6813;60.352;15.746;2023-03-31T01:53:57;-3.80;94.80
13482;DHT22;6813;60.352;15.746;2023-03-31T01:59:13;-3.70;94.70
13482;DHT22;6813;60.352;15.746;2023-03-31T02:02:00;-3.60;94.80
13482;DHT22;6813;60.352;15.746;2023-03-31T02:04:37;-3.60;94.60
13482;DHT22;6813;60.352;15.746;2023-03-31T02:07:23;-3.60;94.60
13482;DHT22;6813;60.352;15.746;2023-03-31T02:09:56;-3.50;94.60
13482;DHT22;6813;60.352;15.746;2023-03-31T02:12:25;-3.60;94.30
13482;DHT22;6813;60.352;15.746;2023-03-31T02:14:54;-3.60;94.30
13482;DHT22;6813;60.352;15.746;2023-03-31T02:17:23;-3.60;94.30
13482;DHT22;6813;60.352;15.746;2023-03-31T02:20:06;-3.60;94.40
13482;DHT22;6813;60.352;15.746;2023-03-31T02:22:37;-3.60;94.40
13482;DHT22;6813;60.352;15.746;2023-03-31T02:25:05;-3.70;94.80
13482;DHT22;6813;60.352;15.746;2023-03-31T02:27:39;-3.70;94.80
13482;DHT22;6813;60.352;15.746;2023-03-31T02:30:08;-3.80;95.50
13482;DHT22;6813;60.352;15.746;2023-03-31T02:32:39;-3.90;95.90
13482;DHT22;6813;60.352;15.746;2023-03-31T02:35:09;-3.90;95.90
13482;DHT22;6813;60.352;15.746;2023-03-31T02:37:35;-3.90;95.90
13482;DHT22;6813;60.352;15.746;2023-03-31T02:40:09;-3.80;95.60
13482;DHT22;6813;60.352;15.746;2023-03-31T02:42:39;-3.80;95.40
13482;DHT22;6813;60.352;15.746;2023-03-31T02:45:33;-3.70;95.50
13482;DHT22;6813;60.352;15.746;2023-03-31T02:47:53;-3.70;95.50
13482;DHT22;6813;60.352;15.746;2023-03-31T02:50:23;-3.70;95.50
13482;DHT22;6813;60.352;15.746;2023-03-31T02:56:20;-3.70;95.60
13482;DHT22;6813;60.352;15.746;2023-03-31T02:59:05;-3.80;95.60
13482;DHT22;6813;60.352;15.746;2023-03-31T03:09:57;-4.10;96.30
13482;DHT22;6813;60.352;15.746;2023-03-31T03:15:53;-4.20;96.70
13482;DHT22;6813;60.352;15.746;2023-03-31T03:18:20;-4.30;97.30
13482;DHT22;6813;60.352;15.746;2023-03-31T03:20:46;-4.40;97.40
13482;DHT22;6813;60.352;15.746;2023-03-31T03:23:16;-4.30;97.00
13482;DHT22;6813;60.352;15.746;2023-03-31T03:25:43;-4.10;97.00
13482;DHT22;6813;60.352;15.746;2023-03-31T03:28:09;-4.00;96.90
13482;DHT22;6813;60.352;15.746;2023-03-31T03:30:35;-3.90;96.70
13482;DHT22;6813;60.352;15.746;2023-03-31T03:33:01;-3.80;97.00
13482;DHT22;6813;60.352;15.746;2023-03-31T03:35:27;-3.80;96.40
13482;DHT22;6813;60.352;15.746;2023-03-31T03:37:53;-3.70;96.30
13482;DHT22;6813;60.352;15.746;2023-03-31T03:40:19;-3.80;96.20
13482;DHT22;6813;60.352;15.746;2023-03-31T03:42:44;-3.80;96.20
13482;DHT22;6813;60.352;15.746;2023-03-31T03:45:10;-3.70;96.00
13482;DHT22;6813;60.352;15.746;2023-03-31T03:47:36;-3.60;95.90
13482;DHT22;6813;60.352;15.746;2023-03-31T03:50:03;-3.70;95.70
13482;DHT22;6813;60.352;15.746;2023-03-31T03:52:29;-3.70;95.60
13482;DHT22;6813;60.352;15.746;2023-03-31T03:54:54;-3.80;95.60
13482;DHT22;6813;60.352;15.746;2023-03-31T03:57:20;-3.80;95.60
13482;DHT22;6813;60.352;15.746;2023-03-31T03:59:46;-3.80;95.60
13482;DHT22;6813;60.352;15.746;2023-03-31T04:02:12;-3.70;95.70
13482;DHT22;6813;60.352;15.746;2023-03-31T04:04:37;-3.70;95.60
13482;DHT22;6813;60.352;15.746;2023-03-31T04:07:03;-3.70;95.50
13482;DHT22;6813;60.352;15.746;2023-03-31T04:09:29;-3.70;95.40
13482;DHT22;6813;60.352;15.746;2023-03-31T04:11:55;-3.70;95.30
13482;DHT22;6813;60.352;15.746;2023-03-31T04:14:20;-3.70;95.30
13482;DHT22;6813;60.352;15.746;2023-03-31T04:16:46;-3.70;95.30
13482;DHT22;6813;60.352;15.746;2023-03-31T04:19:13;-3.70;95.30
13482;DHT22;6813;60.352;15.746;2023-03-31T04:21:42;-3.70;95.20
13482;DHT22;6813;60.352;15.746;2023-03-31T04:24:12;-3.70;95.00
13482;DHT22;6813;60.352;15.746;2023-03-31T04:26:40;-3.70;95.00
13482;DHT22;6813;60.352;15.746;2023-03-31T04:29:11;-3.70;94.80
13482;DHT22;6813;60.352;15.746;2023-03-31T04:31:45;-3.80;94.70
13482;DHT22;6813;60.352;15.746;2023-03-31T04:34:13;-3.80;94.70
13482;DHT22;6813;60.352;15.746;2023-03-31T04:36:43;-3.80;94.70
13482;DHT22;6813;60.352;15.746;2023-03-31T04:39:18;-3.80;94.70
13482;DHT22;6813;60.352;15.746;2023-03-31T04:41:55;-3.80;94.70
13482;DHT22;6813;60.352;15.746;2023-03-31T04:44:21;-3.80;94.70
13482;DHT22;6813;60.352;15.746;2023-03-31T04:46:47;-3.90;94.60
13482;DHT22;6813;60.352;15.746;2023-03-31T04:49:13;-3.90;94.60
13482;DHT22;6813;60.352;15.746;2023-03-31T04:51:38;-3.90;94.80
13482;DHT22;6813;60.352;15.746;2023-03-31T04:54:04;-3.90;94.80
13482;DHT22;6813;60.352;15.746;2023-03-31T04:56:30;-4.00;94.90
13482;DHT22;6813;60.352;15.746;2023-03-31T04:58:56;-4.00;95.00
13482;DHT22;6813;60.352;15.746;2023-03-31T05:01:21;-4.00;95.10
13482;DHT22;6813;60.352;15.746;2023-03-31T05:03:47;-4.00;95.30
13482;DHT22;6813;60.352;15.746;2023-03-31T05:06:14;-4.10;95.50
13482;DHT22;6813;60.352;15.746;2023-03-31T05:08:40;-4.00;95.60
13482;DHT22;6813;60.352;15.746;2023-03-31T05:11:06;-4.00;95.90
13482;DHT22;6813;60.352;15.746;2023-03-31T05:13:32;-4.10;96.20
13482;DHT22;6813;60.352;15.746;2023-03-31T05:15:58;-4.10;96.50
13482;DHT22;6813;60.352;15.746;2023-03-31T05:18:23;-4.30;96.80
13482;DHT22;6813;60.352;15.746;2023-03-31T05:20:49;-4.30;97.00
13482;DHT22;6813;60.352;15.746;2023-03-31T05:23:15;-4.30;97.50
13482;DHT22;6813;60.352;15.746;2023-03-31T05:25:40;-4.30;98.10
13482;DHT22;6813;60.352;15.746;2023-03-31T05:28:07;-4.30;98.50
13482;DHT22;6813;60.352;15.746;2023-03-31T05:30:33;-4.20;98.20
13482;DHT22;6813;60.352;15.746;2023-03-31T05:32:58;-3.90;98.80
13482;DHT22;6813;60.352;15.746;2023-03-31T05:35:24;-3.70;98.30
13482;DHT22;6813;60.352;15.746;2023-03-31T05:37:50;-3.40;98.50
13482;DHT22;6813;60.352;15.746;2023-03-31T05:40:16;-3.20;98.50
13482;DHT22;6813;60.352;15.746;2023-03-31T05:42:42;-3.00;98.40
13482;DHT22;6813;60.352;15.746;2023-03-31T05:45:07;-2.90;97.50
13482;DHT22;6813;60.352;15.746;2023-03-31T05:47:33;-2.80;96.90
13482;DHT22;6813;60.352;15.746;2023-03-31T05:49:59;-2.70;96.20
13482;DHT22;6813;60.352;15.746;2023-03-31T05:52:25;-2.60;96.50
13482;DHT22;6813;60.352;15.746;2023-03-31T05:54:50;-2.50;95.90
13482;DHT22;6813;60.352;15.746;2023-03-31T05:57:16;-2.40;95.70
13482;DHT22;6813;60.352;15.746;2023-03-31T05:59:42;-2.30;95.40
13482;DHT22;6813;60.352;15.746;2023-03-31T06:02:11;-2.10;95.00
13482;DHT22;6813;60.352;15.746;2023-03-31T06:04:37;-1.80;94.50
13482;DHT22;6813;60.352;15.746;2023-03-31T06:07:04;-1.40;93.20
13482;DHT22;6813;60.352;15.746;2023-03-31T06:09:30;-1.20;92.80
13482;DHT22;6813;60.352;15.746;2023-03-31T06:11:55;-0.90;92.50
13482;DHT22;6813;60.352;15.746;2023-03-31T06:14:21;-0.60;92.00
13482;DHT22;6813;60.352;15.746;2023-03-31T06:16:47;-0.30;91.30
13482;DHT22;6813;60.352;15.746;2023-03-31T06:19:13;0.00;91.20
13482;DHT22;6813;60.352;15.746;2023-03-31T06:21:39;0.30;90.90
13482;DHT22;6813;60.352;15.746;2023-03-31T06:24:07;0.50;90.00
13482;DHT22;6813;60.352;15.746;2023-03-31T06:26:32;0.60;88.20
13482;DHT22;6813;60.352;15.746;2023-03-31T06:28:59;0.90;88.60
13482;DHT22;6813;60.352;15.746;2023-03-31T06:31:25;1.20;87.50
13482;DHT22;6813;60.352;15.746;2023-03-31T06:33:51;1.50;86.70
13482;DHT22;6813;60.352;15.746;2023-03-31T06:36:19;1.90;84.90
13482;DHT22;6813;60.352;15.746;2023-03-31T06:38:46;2.20;85.20
13482;DHT22;6813;60.352;15.746;2023-03-31T06:41:13;2.60;83.40
13482;DHT22;6813;60.352;15.746;2023-03-31T06:43:39;3.00;81.40
13482;DHT22;6813;60.352;15.746;2023-03-31T06:46:05;3.30;81.40
13482;DHT22;6813;60.352;15.746;2023-03-31T06:48:32;3.60;79.60
13482;DHT22;6813;60.352;15.746;2023-03-31T06:51:03;3.90;79.10
13482;DHT22;6813;60.352;15.746;2023-03-31T06:53:29;4.30;77.90
13482;DHT22;6813;60.352;15.746;2023-03-31T06:55:55;4.50;77.90
13482;DHT22;6813;60.352;15.746;2023-03-31T06:58:21;4.60;75.10
13482;DHT22;6813;60.352;15.746;2023-03-31T07:00:47;4.80;75.00
13482;DHT22;6813;60.352;15.746;2023-03-31T07:03:13;4.80;72.70
13482;DHT22;6813;60.352;15.746;2023-03-31T07:05:39;4.80;73.70
13482;DHT22;6813;60.352;15.746;2023-03-31T07:08:04;5.00;74.20
13482;DHT22;6813;60.352;15.746;2023-03-31T07:10:32;5.20;73.20
13482;DHT22;6813;60.352;15.746;2023-03-31T07:12:58;5.40;72.20
13482;DHT22;6813;60.352;15.746;2023-03-31T07:15:25;5.50;71.20
13482;DHT22;6813;60.352;15.746;2023-03-31T07:17:55;5.40;70.60
13482;DHT22;6813;60.352;15.746;2023-03-31T07:20:26;5.60;72.40
13482;DHT22;6813;60.352;15.746;2023-03-31T07:22:52;5.80;71.80
13482;DHT22;6813;60.352;15.746;2023-03-31T07:25:18;5.80;69.30
13482;DHT22;6813;60.352;15.746;2023-03-31T07:27:44;6.00;70.10
13482;DHT22;6813;60.352;15.746;2023-03-31T07:30:17;5.90;70.10
13482;DHT22;6813;60.352;15.746;2023-03-31T07:32:45;6.10;69.40
13482;DHT22;6813;60.352;15.746;2023-03-31T07:35:11;6.20;67.60
13482;DHT22;6813;60.352;15.746;2023-03-31T07:37:39;6.40;69.00
13482;DHT22;6813;60.352;15.746;2023-03-31T07:40:07;6.50;67.80
13482;DHT22;6813;60.352;15.746;2023-03-31T07:42:34;6.70;66.90
13482;DHT22;6813;60.352;15.746;2023-03-31T07:45:00;6.90;66.90
13482;DHT22;6813;60.352;15.746;2023-03-31T07:47:26;7.20;66.20
13482;DHT22;6813;60.352;15.746;2023-03-31T07:49:53;7.40;64.20
13482;DHT22;6813;60.352;15.746;2023-03-31T07:52:19;7.50;64.60
13482;DHT22;6813;60.352;15.746;2023-03-31T07:54:45;7.60;63.90
13482;DHT22;6813;60.352;15.746;2023-03-31T07:57:11;7.50;62.80
13482;DHT22;6813;60.352;15.746;2023-03-31T07:59:37;7.60;64.40
13482;DHT22;6813;60.352;15.746;2023-03-31T08:02:03;7.70;63.80
13482;DHT22;6813;60.352;15.746;2023-03-31T08:04:28;7.70;62.60
13482;DHT22;6813;60.352;15.746;2023-03-31T08:06:54;7.90;63.00
13482;DHT22;6813;60.352;15.746;2023-03-31T08:09:20;8.00;63.50
13482;DHT22;6813;60.352;15.746;2023-03-31T08:11:47;8.20;62.50
13482;DHT22;6813;60.352;15.746;2023-03-31T08:14:13;8.40;62.40
13482;DHT22;6813;60.352;15.746;2023-03-31T08:16:39;8.50;61.00
13482;DHT22;6813;60.352;15.746;2023-03-31T08:19:05;8.40;59.50
13482;DHT22;6813;60.352;15.746;2023-03-31T08:21:31;8.30;59.40
13482;DHT22;6813;60.352;15.746;2023-03-31T08:23:57;8.20;60.00
13482;DHT22;6813;60.352;15.746;2023-03-31T08:26:23;8.20;60.70
13482;DHT22;6813;60.352;15.746;2023-03-31T08:28:50;8.30;60.10
13482;DHT22;6813;60.352;15.746;2023-03-31T08:31:17;8.30;60.10
13482;DHT22;6813;60.352;15.746;2023-03-31T08:33:44;8.40;58.90
13482;DHT22;6813;60.352;15.746;2023-03-31T08:36:10;8.60;59.30
13482;DHT22;6813;60.352;15.746;2023-03-31T08:38:36;8.90;59.40
13482;DHT22;6813;60.352;15.746;2023-03-31T08:41:05;9.00;59.10
13482;DHT22;6813;60.352;15.746;2023-03-31T08:43:52;9.10;59.10
13482;DHT22;6813;60.352;15.746;2023-03-31T08:46:19;9.10;58.30
13482;DHT22;6813;60.352;15.746;2023-03-31T08:48:55;9.20;59.20
13482;DHT22;6813;60.352;15.746;2023-03-31T08:51:41;9.20;58.30
13482;DHT22;6813;60.352;15.746;2023-03-31T08:56:50;9.50;58.10
13482;DHT22;6813;60.352;15.746;2023-03-31T09:02:31;9.70;57.40
13482;DHT22;6813;60.352;15.746;2023-03-31T09:13:29;9.50;55.90
13482;DHT22;6813;60.352;15.746;2023-03-31T09:18:44;9.40;55.30
13482;DHT22;6813;60.352;15.746;2023-03-31T09:21:24;9.30;56.40
13482;DHT22;6813;60.352;15.746;2023-03-31T09:29:01;9.50;56.10
13482;DHT22;6813;60.352;15.746;2023-03-31T09:31:31;9.60;55.10
13482;DHT22;6813;60.352;15.746;2023-03-31T09:34:00;9.60;54.00
13482;DHT22;6813;60.352;15.746;2023-03-31T09:36:29;9.60;54.80
13482;DHT22;6813;60.352;15.746;2023-03-31T09:38:55;9.70;54.10
13482;DHT22;6813;60.352;15.746;2023-03-31T09:41:21;9.60;52.80
13482;DHT22;6813;60.352;15.746;2023-03-31T09:43:47;9.60;52.10
13482;DHT22;6813;60.352;15.746;2023-03-31T09:46:30;9.70;53.40
13482;DHT22;6813;60.352;15.746;2023-03-31T09:49:09;9.70;53.20
13482;DHT22;6813;60.352;15.746;2023-03-31T09:51:41;9.60;53.60
13482;DHT22;6813;60.352;15.746;2023-03-31T09:54:27;9.50;52.60
13482;DHT22;6813;60.352;15.746;2023-03-31T09:56:56;9.40;52.10
13482;DHT22;6813;60.352;15.746;2023-03-31T09:59:42;9.40;52.20
13482;DHT22;6813;60.352;15.746;2023-03-31T10:02:37;9.20;51.60
13482;DHT22;6813;60.352;15.746;2023-03-31T10:05:06;9.30;52.10
13482;DHT22;6813;60.352;15.746;2023-03-31T10:07:33;9.30;51.80
13482;DHT22;6813;60.352;15.746;2023-03-31T10:09:59;9.20;52.20
13482;DHT22;6813;60.352;15.746;2023-03-31T10:12:28;9.10;52.00
13482;DHT22;6813;60.352;15.746;2023-03-31T10:15:13;8.90;51.20
13482;DHT22;6813;60.352;15.746;2023-03-31T10:17:43;8.80;51.10
13482;DHT22;6813;60.352;15.746;2023-03-31T10:20:44;8.50;50.20
13482;DHT22;6813;60.352;15.746;2023-03-31T10:25:45;8.50;50.80
13482;DHT22;6813;60.352;15.746;2023-03-31T10:28:17;8.60;51.20
13482;DHT22;6813;60.352;15.746;2023-03-31T10:30:57;8.60;51.00
13482;DHT22;6813;60.352;15.746;2023-03-31T10:33:30;8.50;50.70
13482;DHT22;6813;60.352;15.746;2023-03-31T10:36:07;7.90;49.30
13482;DHT22;6813;60.352;15.746;2023-03-31T10:38:43;7.90;51.10
13482;DHT22;6813;60.352;15.746;2023-03-31T10:41:10;8.00;53.60
13482;DHT22;6813;60.352;15.746;2023-03-31T10:43:43;7.60;51.30
13482;DHT22;6813;60.352;15.746;2023-03-31T10:46:12;7.70;51.40
13482;DHT22;6813;60.352;15.746;2023-03-31T10:48:40;7.40;50.70
13482;DHT22;6813;60.352;15.746;2023-03-31T10:53:47;8.00;51.80
13482;DHT22;6813;60.352;15.746;2023-03-31T10:56:41;8.10;50.90
13482;DHT22;6813;60.352;15.746;2023-03-31T11:04:59;8.10;50.40
13482;DHT22;6813;60.352;15.746;2023-03-31T11:10:03;7.90;50.40
13482;DHT22;6813;60.352;15.746;2023-03-31T11:12:51;8.00;51.20
13482;DHT22;6813;60.352;15.746;2023-03-31T11:15:44;8.00;49.40
13482;DHT22;6813;60.352;15.746;2023-03-31T11:29:23;7.20;48.80
13482;DHT22;6813;60.352;15.746;2023-03-31T11:32:15;7.10;51.00
13482;DHT22;6813;60.352;15.746;2023-03-31T11:45:43;7.60;51.90
13482;DHT22;6813;60.352;15.746;2023-03-31T11:48:20;7.50;49.00
13482;DHT22;6813;60.352;15.746;2023-03-31T11:50:49;7.70;50.30
13482;DHT22;6813;60.352;15.746;2023-03-31T11:53:24;7.70;49.60
13482;DHT22;6813;60.352;15.746;2023-03-31T11:55:54;7.70;49.50
13482;DHT22;6813;60.352;15.746;2023-03-31T11:58:29;7.40;48.60
13482;DHT22;6813;60.352;15.746;2023-03-31T12:01:17;7.30;48.30
13482;DHT22;6813;60.352;15.746;2023-03-31T12:04:00;7.20;50.20
13482;DHT22;6813;60.352;15.746;2023-03-31T12:06:33;7.30;51.10
13482;DHT22;6813;60.352;15.746;2023-03-31T12:09:18;7.40;51.20
13482;DHT22;6813;60.352;15.746;2023-03-31T12:11:58;7.30;50.50
13482;DHT22;6813;60.352;15.746;2023-03-31T12:14:52;6.40;50.40
13482;DHT22;6813;60.352;15.746;2023-03-31T12:17:19;6.30;51.90
13482;DHT22;6813;60.352;15.746;2023-03-31T12:19:52;6.30;52.60
13482;DHT22;6813;60.352;15.746;2023-03-31T12:22:34;6.40;51.80
13482;DHT22;6813;60.352;15.746;2023-03-31T12:25:00;6.30;50.40
13482;DHT22;6813;60.352;15.746;2023-03-31T12:27:44;6.30;52.50
13482;DHT22;6813;60.352;15.746;2023-03-31T12:30:33;6.20;51.10
13482;DHT22;6813;60.352;15.746;2023-03-31T12:33:48;5.80;51.30
13482;DHT22;6813;60.352;15.746;2023-03-31T12:36:19;5.70;51.00
13482;DHT22;6813;60.352;15.746;2023-03-31T12:46:57;5.50;51.30
13482;DHT22;6813;60.352;15.746;2023-03-31T12:49:44;5.00;52.00
13482;DHT22;6813;60.352;15.746;2023-03-31T12:53:07;4.90;54.50
13482;DHT22;6813;60.352;15.746;2023-03-31T13:01:09;5.20;53.60
13482;DHT22;6813;60.352;15.746;2023-03-31T13:06:04;4.80;52.70
13482;DHT22;6813;60.352;15.746;2023-03-31T13:08:53;4.70;55.80
13482;DHT22;6813;60.352;15.746;2023-03-31T13:14:25;4.80;54.90
13482;DHT22;6813;60.352;15.746;2023-03-31T13:17:11;5.10;54.90
13482;DHT22;6813;60.352;15.746;2023-03-31T13:19:39;5.10;54.40
13482;DHT22;6813;60.352;15.746;2023-03-31T13:22:05;5.20;54.30
13482;DHT22;6813;60.352;15.746;2023-03-31T13:24:32;5.20;55.10
13482;DHT22;6813;60.352;15.746;2023-03-31T13:27:34;5.10;54.40
13482;DHT22;6813;60.352;15.746;2023-03-31T13:30:00;5.10;54.10
13482;DHT22;6813;60.352;15.746;2023-03-31T13:32:26;5.00;56.50
13482;DHT22;6813;60.352;15.746;2023-03-31T13:43:46;5.30;55.20
13482;DHT22;6813;60.352;15.746;2023-03-31T14:00:29;5.20;55.10
13482;DHT22;6813;60.352;15.746;2023-03-31T14:06:06;4.80;56.40
13482;DHT22;6813;60.352;15.746;2023-03-31T14:16:30;4.60;56.10
13482;DHT22;6813;60.352;15.746;2023-03-31T14:19:10;4.40;56.40
13482;DHT22;6813;60.352;15.746;2023-03-31T14:21:50;4.60;58.00
13482;DHT22;6813;60.352;15.746;2023-03-31T14:24:41;4.70;56.50
13482;DHT22;6813;60.352;15.746;2023-03-31T14:29:58;5.10;56.10
13482;DHT22;6813;60.352;15.746;2023-03-31T14:32:37;5.10;55.60
13482;DHT22;6813;60.352;15.746;2023-03-31T14:35:42;5.20;54.40
13482;DHT22;6813;60.352;15.746;2023-03-31T14:38:18;5.30;54.00
13482;DHT22;6813;60.352;15.746;2023-03-31T14:40:52;5.30;55.20
13482;DHT22;6813;60.352;15.746;2023-03-31T14:43:22;5.30;55.30
13482;DHT22;6813;60.352;15.746;2023-03-31T14:46:08;5.30;54.90
13482;DHT22;6813;60.352;15.746;2023-03-31T14:48:43;5.30;54.50
13482;DHT22;6813;60.352;15.746;2023-03-31T14:51:14;5.40;54.80
13482;DHT22;6813;60.352;15.746;2023-03-31T14:53:41;5.10;53.20
13482;DHT22;6813;60.352;15.746;2023-03-31T14:56:20;5.10;52.40
13482;DHT22;6813;60.352;15.746;2023-03-31T14:58:49;5.10;54.30
13482;DHT22;6813;60.352;15.746;2023-03-31T15:01:22;5.20;54.80
13482;DHT22;6813;60.352;15.746;2023-03-31T15:03:51;5.20;55.50
13482;DHT22;6813;60.352;15.746;2023-03-31T15:06:17;5.20;52.80
13482;DHT22;6813;60.352;15.746;2023-03-31T15:08:43;5.20;54.40
13482;DHT22;6813;60.352;15.746;2023-03-31T15:11:14;5.30;55.10
13482;DHT22;6813;60.352;15.746;2023-03-31T15:13:47;5.30;56.10
13482;DHT22;6813;60.352;15.746;2023-03-31T15:16:42;5.20;53.10
13482;DHT22;6813;60.352;15.746;2023-03-31T15:19:28;5.00;53.60
13482;DHT22;6813;60.352;15.746;2023-03-31T15:22:17;4.70;53.80
13482;DHT22;6813;60.352;15.746;2023-03-31T15:24:43;4.70;55.80
13482;DHT22;6813;60.352;15.746;2023-03-31T15:27:31;4.70;54.40
13482;DHT22;6813;60.352;15.746;2023-03-31T15:30:00;4.80;56.70
13482;DHT22;6813;60.352;15.746;2023-03-31T15:32:29;4.90;56.00
13482;DHT22;6813;60.352;15.746;2023-03-31T15:34:55;5.00;56.00
13482;DHT22;6813;60.352;15.746;2023-03-31T15:37:25;5.00;53.80
13482;DHT22;6813;60.352;15.746;2023-03-31T15:39:57;5.00;54.80
13482;DHT22;6813;60.352;15.746;2023-03-31T15:42:25;5.00;56.00
13482;DHT22;6813;60.352;15.746;2023-03-31T15:45:15;5.00;54.30
13482;DHT22;6813;60.352;15.746;2023-03-31T15:47:48;4.80;54.70
13482;DHT22;6813;60.352;15.746;2023-03-31T15:50:15;5.00;56.30
13482;DHT22;6813;60.352;15.746;2023-03-31T15:52:49;4.90;54.80
13482;DHT22;6813;60.352;15.746;2023-03-31T15:55:30;4.90;53.70
13482;DHT22;6813;60.352;15.746;2023-03-31T15:57:59;4.80;54.60
13482;DHT22;6813;60.352;15.746;2023-03-31T16:00:43;4.80;54.80
13482;DHT22;6813;60.352;15.746;2023-03-31T16:03:28;4.80;53.70
13482;DHT22;6813;60.352;15.746;2023-03-31T16:06:09;4.80;53.10
13482;DHT22;6813;60.352;15.746;2023-03-31T16:08:43;4.60;51.40
13482;DHT22;6813;60.352;15.746;2023-03-31T16:11:20;4.60;51.40
13482;DHT22;6813;60.352;15.746;2023-03-31T16:13:54;4.70;53.30
13482;DHT22;6813;60.352;15.746;2023-03-31T16:16:23;4.80;53.90
13482;DHT22;6813;60.352;15.746;2023-03-31T16:18:59;4.90;53.70
13482;DHT22;6813;60.352;15.746;2023-03-31T16:21:37;4.90;53.40
13482;DHT22;6813;60.352;15.746;2023-03-31T16:24:05;4.90;53.50
13482;DHT22;6813;60.352;15.746;2023-03-31T16:26:31;5.00;53.60
13482;DHT22;6813;60.352;15.746;2023-03-31T16:28:58;5.00;52.80
13482;DHT22;6813;60.352;15.746;2023-03-31T16:31:32;5.00;52.20
13482;DHT22;6813;60.352;15.746;2023-03-31T16:34:11;4.90;52.00
13482;DHT22;6813;60.352;15.746;2023-03-31T16:36:37;4.80;51.20
13482;DHT22;6813;60.352;15.746;2023-03-31T16:39:03;4.70;51.60
13482;DHT22;6813;60.352;15.746;2023-03-31T16:41:33;4.70;52.10
13482;DHT22;6813;60.352;15.746;2023-03-31T16:44:00;4.80;53.80
13482;DHT22;6813;60.352;15.746;2023-03-31T16:46:26;4.70;51.80
13482;DHT22;6813;60.352;15.746;2023-03-31T16:48:52;4.60;52.00
13482;DHT22;6813;60.352;15.746;2023-03-31T16:51:18;4.50;51.50
13482;DHT22;6813;60.352;15.746;2023-03-31T16:53:45;4.50;51.70
13482;DHT22;6813;60.352;15.746;2023-03-31T16:56:12;4.40;52.00
13482;DHT22;6813;60.352;15.746;2023-03-31T16:58:39;4.40;53.10
13482;DHT22;6813;60.352;15.746;2023-03-31T17:01:06;4.30;51.50
13482;DHT22;6813;60.352;15.746;2023-03-31T17:03:33;4.30;51.60
13482;DHT22;6813;60.352;15.746;2023-03-31T17:06:12;4.20;51.80
13482;DHT22;6813;60.352;15.746;2023-03-31T17:08:39;4.30;59.20
13482;DHT22;6813;60.352;15.746;2023-03-31T17:11:08;4.30;53.10
13482;DHT22;6813;60.352;15.746;2023-03-31T17:13:36;4.40;54.20
13482;DHT22;6813;60.352;15.746;2023-03-31T17:16:01;4.50;55.30
13482;DHT22;6813;60.352;15.746;2023-03-31T17:18:27;4.50;56.20
13482;DHT22;6813;60.352;15.746;2023-03-31T17:20:53;4.60;56.80
13482;DHT22;6813;60.352;15.746;2023-03-31T17:23:20;4.60;56.90
13482;DHT22;6813;60.352;15.746;2023-03-31T17:25:51;4.60;57.50
13482;DHT22;6813;60.352;15.746;2023-03-31T17:28:16;4.60;58.20
13482;DHT22;6813;60.352;15.746;2023-03-31T17:30:43;4.60;56.90
13482;DHT22;6813;60.352;15.746;2023-03-31T17:33:11;4.60;55.70
13482;DHT22;6813;60.352;15.746;2023-03-31T17:35:36;4.60;57.30
13482;DHT22;6813;60.352;15.746;2023-03-31T17:38:02;4.50;58.20
13482;DHT22;6813;60.352;15.746;2023-03-31T17:40:29;4.50;58.90
13482;DHT22;6813;60.352;15.746;2023-03-31T17:43:00;4.60;61.60
13482;DHT22;6813;60.352;15.746;2023-03-31T17:45:28;4.50;60.40
13482;DHT22;6813;60.352;15.746;2023-03-31T17:47:54;4.50;62.70
13482;DHT22;6813;60.352;15.746;2023-03-31T17:50:20;4.50;64.50
13482;DHT22;6813;60.352;15.746;2023-03-31T17:52:46;4.50;64.40
13482;DHT22;6813;60.352;15.746;2023-03-31T17:55:11;4.40;63.90
13482;DHT22;6813;60.352;15.746;2023-03-31T17:57:39;4.50;65.50
13482;DHT22;6813;60.352;15.746;2023-03-31T18:00:08;4.40;66.90
13482;DHT22;6813;60.352;15.746;2023-03-31T18:02:35;4.40;65.80
13482;DHT22;6813;60.352;15.746;2023-03-31T18:05:02;4.30;59.20
13482;DHT22;6813;60.352;15.746;2023-03-31T18:07:29;4.10;60.00
13482;DHT22;6813;60.352;15.746;2023-03-31T18:09:54;4.00;62.20
13482;DHT22;6813;60.352;15.746;2023-03-31T18:12:20;3.90;61.40
13482;DHT22;6813;60.352;15.746;2023-03-31T18:14:46;3.70;60.90
13482;DHT22;6813;60.352;15.746;2023-03-31T18:17:11;3.40;61.60
13482;DHT22;6813;60.352;15.746;2023-03-31T18:19:40;3.10;62.40
13482;DHT22;6813;60.352;15.746;2023-03-31T18:22:06;3.00;63.40
13482;DHT22;6813;60.352;15.746;2023-03-31T18:24:31;2.80;63.80
13482;DHT22;6813;60.352;15.746;2023-03-31T18:26:58;2.60;64.00
13482;DHT22;6813;60.352;15.746;2023-03-31T18:29:24;2.40;64.40
13482;DHT22;6813;60.352;15.746;2023-03-31T18:31:50;2.00;64.60
13482;DHT22;6813;60.352;15.746;2023-03-31T18:34:16;1.90;65.90
13482;DHT22;6813;60.352;15.746;2023-03-31T18:36:42;1.70;66.80
13482;DHT22;6813;60.352;15.746;2023-03-31T18:39:08;1.60;67.10